Time;durP1;ratioP1;P1;durP2;ratioP2;P2;SDS_P1;SDS_P2;PMS_P1;PMS_P2;Temp;Humidity;BMP_temperature;BMP_pressure;BME280_temperature;BME280_humidity;BME280_pressure;Samples;Min_cycle;Max_cycle;Signal;HPM_P1;HPM_P2
2022/06/23 00:01:22;;;;;;;6.88;5.20;;;14.10;99.90;;;;;;5007841;28;20089;-55
2022/06/23 00:03:54;;;;;;;5.57;5.03;;;14.10;99.90;;;;;;5008692;28;20432;-55
2022/06/23 00:06:38;;;;;;;5.72;4.90;;;14.00;99.90;;;;;;5008018;28;20426;-55
2022/06/23 00:09:45;;;;;;;5.28;4.78;;;14.10;99.90;;;;;;5009735;28;20060;-53
2022/06/23 00:12:19;;;;;;;5.57;5.07;;;14.10;99.90;;;;;;4986171;28;20048;-55
2022/06/23 00:15:25;;;;;;;5.13;4.63;;;14.00;99.90;;;;;;5007958;28;20915;-54
2022/06/23 00:17:59;;;;;;;6.45;5.85;;;14.00;99.90;;;;;;5008833;28;20443;-55
2022/06/23 00:20:33;;;;;;;5.10;4.28;;;14.00;99.90;;;;;;5007560;28;20488;-55
2022/06/23 00:23:03;;;;;;;6.00;5.40;;;14.00;99.90;;;;;;5010786;28;20144;-54
2022/06/23 00:25:39;;;;;;;6.15;5.45;;;14.00;99.90;;;;;;5009719;28;20064;-54
2022/06/23 00:28:06;;;;;;;6.05;5.35;;;14.00;99.90;;;;;;5010480;28;20058;-55
2022/06/23 00:30:41;;;;;;;5.72;5.10;;;14.00;99.90;;;;;;5008042;28;20054;-55
2022/06/23 00:33:14;;;;;;;8.77;5.22;;;14.00;99.90;;;;;;5009674;28;20159;-54
2022/06/23 00:35:40;;;;;;;7.13;5.72;;;13.90;99.90;;;;;;5012392;28;20053;-55
2022/06/23 00:38:26;;;;;;;6.22;5.30;;;13.90;99.90;;;;;;5008150;28;20794;-54
2022/06/23 00:40:53;;;;;;;6.00;5.35;;;13.90;99.90;;;;;;5007620;28;20083;-55
2022/06/23 00:43:21;;;;;;;6.10;5.50;;;13.80;99.90;;;;;;5012141;28;20049;-54
2022/06/23 00:45:57;;;;;;;7.15;5.22;;;13.80;99.90;;;;;;5006120;28;20044;-54
2022/06/23 00:48:31;;;;;;;7.00;5.30;;;13.80;99.90;;;;;;5006984;28;20053;-53
2022/06/23 00:51:32;;;;;;;6.15;5.10;;;13.80;99.90;;;;;;5023122;28;20050;-54
2022/06/23 00:54:24;;;;;;;7.30;5.72;;;13.80;99.90;;;;;;5005876;28;20128;-55
2022/06/23 00:57:13;;;;;;;6.68;5.30;;;13.80;99.90;;;;;;5009029;28;20109;-53
2022/06/23 00:59:47;;;;;;;7.88;5.55;;;13.80;99.90;;;;;;5007088;28;20045;-55
2022/06/23 01:02:27;;;;;;;7.45;5.90;;;13.80;99.90;;;;;;5008726;28;20132;-55
2022/06/23 01:04:57;;;;;;;6.22;5.18;;;13.80;99.90;;;;;;5011969;28;20041;-55
2022/06/23 01:07:45;;;;;;;6.20;5.15;;;13.80;99.90;;;;;;5004340;28;20472;-55
2022/06/23 01:10:24;;;;;;;6.45;5.50;;;13.80;99.90;;;;;;5005928;28;20163;-55
2022/06/23 01:13:10;;;;;;;6.72;5.72;;;13.80;99.90;;;;;;5004245;28;20200;-55
2022/06/23 01:15:39;;;;;;;6.15;5.30;;;13.80;99.90;;;;;;5003752;28;20543;-54
2022/06/23 01:18:13;;;;;;;5.63;5.07;;;13.90;99.90;;;;;;5010452;28;20095;-54
2022/06/23 01:20:57;;;;;;;7.30;5.65;;;13.80;99.90;;;;;;5009446;28;20045;-54
2022/06/23 01:23:41;;;;;;;6.15;5.55;;;13.80;99.90;;;;;;5006243;28;20095;-55
2022/06/23 01:26:35;;;;;;;6.40;5.60;;;13.80;99.90;;;;;;5001787;28;20081;-55
2022/06/23 01:29:09;;;;;;;8.65;5.75;;;13.80;99.90;;;;;;5007655;28;20085;-55
2022/06/23 01:31:47;;;;;;;7.07;6.35;;;13.80;99.90;;;;;;5005255;28;20049;-55
2022/06/23 01:34:52;;;;;;;7.07;5.95;;;13.80;99.90;;;;;;5008688;28;20041;-55
2022/06/23 01:37:38;;;;;;;7.93;5.80;;;13.70;99.90;;;;;;5007662;28;20049;-55
2022/06/23 01:40:26;;;;;;;7.72;6.93;;;13.70;99.90;;;;;;5006452;28;20096;-55
2022/06/23 01:42:55;;;;;;;8.23;7.30;;;13.70;99.90;;;;;;5009018;28;20506;-55
2022/06/23 01:45:25;;;;;;;7.97;7.13;;;13.70;99.90;;;;;;5011743;28;20491;-53
2022/06/23 01:48:13;;;;;;;9.55;7.10;;;13.70;99.90;;;;;;5018770;28;20483;-55
2022/06/23 01:50:53;;;;;;;9.80;7.40;;;13.70;99.90;;;;;;5015293;28;20059;-55
2022/06/23 01:53:24;;;;;;;8.55;7.55;;;13.70;99.90;;;;;;5006528;28;20483;-55
2022/06/23 01:55:54;;;;;;;11.48;7.65;;;13.70;99.90;;;;;;5009521;28;20045;-54
2022/06/23 01:58:22;;;;;;;8.45;7.15;;;13.70;99.90;;;;;;5000292;28;20053;-55
2022/06/23 02:00:53;;;;;;;9.50;7.63;;;13.70;99.90;;;;;;5010491;28;20053;-55
2022/06/23 02:03:34;;;;;;;9.50;7.18;;;13.70;99.90;;;;;;5010341;28;20049;-54
2022/06/23 02:06:23;;;;;;;10.20;7.63;;;13.70;99.90;;;;;;5007164;28;22372;-55
2022/06/23 02:09:09;;;;;;;9.95;7.57;;;13.70;99.90;;;;;;5007512;28;20727;-55
2022/06/23 02:11:47;;;;;;;8.30;7.30;;;13.70;99.90;;;;;;5008120;28;20056;-55
2022/06/23 02:14:33;;;;;;;8.35;7.20;;;13.70;99.90;;;;;;5003057;28;20732;-55
2022/06/23 02:17:02;;;;;;;11.23;7.85;;;13.70;99.90;;;;;;5009284;28;20049;-55
2022/06/23 02:19:41;;;;;;;9.43;7.75;;;13.70;99.90;;;;;;5005854;28;20076;-53
2022/06/23 02:22:21;;;;;;;8.98;8.02;;;13.70;99.90;;;;;;5022935;28;20053;-54
2022/06/23 02:25:11;;;;;;;11.13;7.10;;;13.70;99.90;;;;;;5004717;28;20079;-54
2022/06/23 02:28:09;;;;;;;7.95;7.13;;;13.70;99.90;;;;;;5004184;28;20172;-55
2022/06/23 02:30:45;;;;;;;8.00;7.20;;;13.60;99.90;;;;;;5009018;28;20694;-53
2022/06/23 02:33:43;;;;;;;8.85;7.45;;;13.60;99.90;;;;;;5009838;28;20051;-53
2022/06/23 02:36:28;;;;;;;10.88;7.50;;;13.60;99.90;;;;;;5006740;28;20084;-55
2022/06/23 02:39:17;;;;;;;11.13;8.07;;;13.60;99.90;;;;;;5006481;28;20049;-53
2022/06/23 02:41:51;;;;;;;10.27;7.80;;;13.60;99.90;;;;;;4987040;28;20500;-52
2022/06/23 02:44:26;;;;;;;9.43;8.10;;;13.60;99.90;;;;;;5009472;28;20124;-54
2022/06/23 02:47:11;;;;;;;11.45;8.60;;;13.50;99.90;;;;;;5013409;28;20936;-54
2022/06/23 02:49:59;;;;;;;10.82;8.30;;;13.50;99.90;;;;;;5012916;28;20502;-55
2022/06/23 02:52:36;;;;;;;9.38;7.63;;;13.50;99.90;;;;;;5016103;28;20434;-54
2022/06/23 02:55:07;;;;;;;11.30;8.30;;;13.50;99.90;;;;;;5007323;28;20050;-55
2022/06/23 02:57:42;;;;;;;10.95;9.38;;;13.50;99.90;;;;;;5009435;28;20037;-53
2022/06/23 03:00:40;;;;;;;11.35;8.73;;;13.50;99.90;;;;;;5010456;28;24632;-54
2022/06/23 03:03:35;;;;;;;15.55;9.18;;;13.40;99.90;;;;;;5010052;28;20054;-55
2022/06/23 03:06:30;;;;;;;11.27;9.32;;;13.40;99.90;;;;;;5009352;28;20332;-55
2022/06/23 03:09:08;;;;;;;12.07;9.18;;;13.40;99.90;;;;;;5012736;28;20483;-54
2022/06/23 03:11:51;;;;;;;10.52;8.63;;;13.30;99.90;;;;;;5011309;28;20041;-53
2022/06/23 03:14:42;;;;;;;11.98;8.95;;;13.30;99.90;;;;;;5001167;28;20061;-54
2022/06/23 03:17:28;;;;;;;11.02;9.35;;;13.30;99.90;;;;;;5010082;28;20174;-54
2022/06/23 03:20:24;;;;;;;13.77;9.02;;;13.30;99.90;;;;;;5009125;28;20046;-55
2022/06/23 03:23:28;;;;;;;11.40;8.57;;;13.30;99.90;;;;;;5013989;28;20080;-53
2022/06/23 03:25:56;;;;;;;;;;;13.30;99.90;;;;;;5012301;28;20097;-53
2022/06/23 03:28:29;;;;;;;11.50;9.05;;;13.20;99.90;;;;;;5009254;28;20271;-54
2022/06/23 03:31:21;;;;;;;12.20;8.90;;;13.30;99.90;;;;;;5005577;28;20079;-53
2022/06/23 03:34:03;;;;;;;11.55;8.35;;;13.30;99.90;;;;;;5011195;28;20040;-55
2022/06/23 03:36:44;;;;;;;12.63;8.68;;;13.30;99.90;;;;;;5017066;28;20077;-53
2022/06/23 03:42:37;;;;;;;11.90;8.35;;;13.30;99.90;;;;;;5017846;28;20077;-53
2022/06/23 03:45:28;;;;;;;11.32;8.80;;;13.30;99.90;;;;;;5014338;28;20045;-53
2022/06/23 03:48:24;;;;;;;11.50;8.32;;;13.30;99.90;;;;;;5021099;28;20041;-54
2022/06/23 03:51:02;;;;;;;11.82;8.48;;;13.40;99.90;;;;;;5016178;28;20046;-53
2022/06/23 03:53:39;;;;;;;10.23;8.05;;;13.40;99.90;;;;;;5017205;28;20563;-52
2022/06/23 03:56:14;;;;;;;12.65;9.35;;;13.40;99.90;;;;;;5014648;28;20060;-53
2022/06/23 03:58:47;;;;;;;10.85;8.65;;;13.40;99.90;;;;;;5010486;28;20077;-54
2022/06/23 04:01:14;;;;;;;15.23;9.32;;;13.40;99.90;;;;;;5012758;28;20041;-53
2022/06/23 04:03:48;;;;;;;12.18;9.55;;;13.50;99.90;;;;;;5011557;28;20053;-53
2022/06/23 04:06:38;;;;;;;12.88;9.15;;;13.50;99.90;;;;;;5013329;28;20771;-54
2022/06/23 04:09:16;;;;;;;13.48;9.43;;;13.60;99.90;;;;;;5012868;28;20045;-53
2022/06/23 04:11:52;;;;;;;12.75;9.55;;;13.60;99.90;;;;;;5012362;28;20601;-53
2022/06/23 04:14:29;;;;;;;13.90;9.48;;;13.60;99.90;;;;;;5011450;28;20144;-54
2022/06/23 04:17:06;;;;;;;14.02;9.48;;;13.70;99.90;;;;;;5016591;28;20421;-55
2022/06/23 04:19:34;;;;;;;12.65;10.20;;;13.70;99.90;;;;;;5007474;28;20059;-54
2022/06/23 04:22:22;;;;;;;13.02;9.10;;;13.70;99.90;;;;;;5014132;28;20067;-53
2022/06/23 04:24:53;;;;;;;13.20;9.68;;;13.80;99.90;;;;;;5012763;28;20128;-54
2022/06/23 04:27:29;;;;;;;11.75;8.95;;;13.90;99.90;;;;;;5002550;28;20471;-53
2022/06/23 04:29:59;;;;;;;11.27;8.95;;;13.90;99.90;;;;;;5014890;28;20037;-54
2022/06/23 04:32:29;;;;;;;13.98;9.27;;;13.90;99.90;;;;;;5013029;28;20042;-54
2022/06/23 04:34:58;;;;;;;12.38;9.65;;;14.00;99.90;;;;;;5015698;28;20046;-54
2022/06/23 04:37:33;;;;;;;11.52;9.20;;;14.00;99.90;;;;;;5025622;28;20064;-53
2022/06/23 04:40:20;;;;;;;12.30;9.25;;;14.10;99.90;;;;;;4997624;28;20060;-54
2022/06/23 04:42:57;;;;;;;12.68;9.23;;;14.10;99.90;;;;;;5023293;28;20045;-53
2022/06/23 04:45:38;;;;;;;10.50;8.88;;;14.20;99.90;;;;;;5023072;28;20103;-51
2022/06/23 04:48:12;;;;;;;11.75;9.00;;;14.30;99.90;;;;;;5024809;28;20048;-53
2022/06/23 04:50:46;;;;;;;12.70;9.52;;;14.30;99.90;;;;;;5010880;28;20124;-54
2022/06/23 04:53:34;;;;;;;10.75;8.65;;;14.30;99.90;;;;;;5011750;28;20045;-54
2022/06/23 04:56:08;;;;;;;14.45;9.40;;;14.40;99.90;;;;;;5013693;28;20512;-55
2022/06/23 04:58:40;;;;;;;12.30;8.73;;;14.50;99.90;;;;;;5016074;28;20683;-55
2022/06/23 05:01:11;;;;;;;;;;;14.50;99.90;;;;;;5017206;28;20103;-53
2022/06/23 05:03:54;;;;;;;11.40;9.52;;;14.50;99.90;;;;;;5020083;28;19943;-53
2022/06/23 05:06:36;;;;;;;11.57;8.70;;;14.60;99.90;;;;;;5013176;28;20045;-54
2022/06/23 05:09:19;;;;;;;14.00;9.57;;;14.60;99.90;;;;;;5015593;28;20515;-53
2022/06/23 05:11:59;;;;;;;10.68;8.80;;;14.70;99.90;;;;;;5008866;28;20315;-53
2022/06/23 05:14:37;;;;;;;13.18;8.95;;;14.80;99.90;;;;;;5011513;28;20045;-54
2022/06/23 05:17:26;;;;;;;13.45;9.27;;;14.80;99.90;;;;;;5011095;28;20051;-52
2022/06/23 05:19:57;;;;;;;12.20;8.07;;;14.80;99.90;;;;;;5007819;28;20057;-54
2022/06/23 05:22:30;;;;;;;14.90;9.93;;;14.90;99.90;;;;;;5011525;28;20056;-54
2022/06/23 05:24:59;;;;;;;13.20;9.20;;;15.00;99.90;;;;;;5012602;28;20049;-54
2022/06/23 05:27:34;;;;;;;11.05;8.50;;;15.00;99.90;;;;;;5026448;28;20115;-54
2022/06/23 05:30:00;;;;;;;13.55;9.10;;;15.10;99.90;;;;;;5014656;28;20037;-53
2022/06/23 05:32:28;;;;;;;10.82;8.45;;;15.10;99.90;;;;;;5009268;28;20490;-54
2022/06/23 05:35:12;;;;;;;13.60;8.70;;;15.20;99.90;;;;;;5008249;28;20056;-52
2022/06/23 05:38:10;;;;;;;10.93;8.75;;;15.30;99.90;;;;;;5010806;28;20045;-54
2022/06/23 05:40:47;;;;;;;11.98;8.52;;;15.30;99.90;;;;;;5009875;28;20124;-52
2022/06/23 05:43:14;;;;;;;10.25;7.85;;;15.40;99.90;;;;;;5010337;28;20041;-54
2022/06/23 05:45:49;;;;;;;12.73;8.75;;;15.50;99.90;;;;;;5004619;28;20511;-55
2022/06/23 05:48:27;;;;;;;11.18;8.27;;;15.50;99.90;;;;;;5003825;28;20084;-52
2022/06/23 05:50:59;;;;;;;14.32;8.15;;;15.60;99.90;;;;;;5012553;28;20152;-55
2022/06/23 05:53:35;;;;;;;12.20;8.48;;;15.70;99.90;;;;;;5012466;28;20045;-55
2022/06/23 05:56:09;;;;;;;9.35;8.15;;;15.70;99.90;;;;;;5005114;28;20042;-54
2022/06/23 05:58:46;;;;;;;13.40;9.20;;;15.80;99.90;;;;;;5006025;28;20507;-54
2022/06/23 06:01:25;;;;;;;11.77;8.60;;;15.90;99.90;;;;;;5003115;28;20079;-54
2022/06/23 06:04:04;;;;;;;11.73;8.73;;;16.00;99.90;;;;;;5006139;28;20124;-55
2022/06/23 06:06:32;;;;;;;10.25;8.95;;;16.10;99.90;;;;;;5007651;28;20156;-54
2022/06/23 06:11:51;;;;;;;13.52;8.77;;;16.30;99.90;;;;;;5009341;28;20045;-53
2022/06/23 06:14:20;;;;;;;13.90;8.82;;;16.40;99.90;;;;;;5006455;28;20064;-53
2022/06/23 06:16:47;;;;;;;14.80;9.07;;;16.50;99.90;;;;;;5005858;28;20045;-54
2022/06/23 06:19:19;;;;;;;15.27;9.07;;;16.60;99.90;;;;;;5005005;28;20081;-54
2022/06/23 06:21:47;;;;;;;10.10;9.00;;;16.70;99.90;;;;;;5010773;28;20043;-54
2022/06/23 06:24:29;;;;;;;15.88;8.68;;;16.80;99.90;;;;;;5013834;28;20135;-52
2022/06/23 06:26:56;;;;;;;11.73;9.07;;;17.00;99.90;;;;;;5019093;28;20457;-53
2022/06/23 06:29:36;;;;;;;11.00;9.38;;;17.10;99.90;;;;;;5015316;28;20063;-53
2022/06/23 06:32:26;;;;;;;13.02;9.02;;;17.20;99.90;;;;;;5005199;28;20053;-54
2022/06/23 06:35:15;;;;;;;14.23;9.57;;;17.30;99.90;;;;;;5009562;28;20033;-54
2022/06/23 06:37:44;;;;;;;13.70;9.63;;;17.50;99.90;;;;;;5010903;28;20129;-54
2022/06/23 06:40:11;;;;;;;14.73;9.73;;;17.60;99.90;;;;;;5011832;28;20053;-53
2022/06/23 06:42:42;;;;;;;15.13;9.38;;;17.70;99.90;;;;;;4973563;28;20041;-53
2022/06/23 06:45:17;;;;;;;12.05;9.60;;;17.80;99.90;;;;;;5009397;28;20046;-53
2022/06/23 06:47:44;;;;;;;12.55;8.98;;;17.90;99.90;;;;;;5006732;28;20038;-54
2022/06/23 06:50:25;;;;;;;12.35;8.40;;;18.00;99.90;;;;;;5002525;28;20388;-53
2022/06/23 06:52:51;;;;;;;12.93;8.45;;;18.10;99.90;;;;;;5006314;28;20056;-54
2022/06/23 06:55:26;;;;;;;11.35;8.32;;;18.30;99.90;;;;;;5002278;28;22155;-54
2022/06/23 06:57:55;;;;;;;11.52;8.50;;;18.30;99.90;;;;;;5014115;28;20050;-53
2022/06/23 07:00:30;;;;;;;11.95;8.02;;;18.40;99.90;;;;;;5009527;28;20103;-53
2022/06/23 07:03:06;;;;;;;15.57;7.95;;;18.50;99.90;;;;;;5011013;28;20110;-53
2022/06/23 07:05:50;;;;;;;13.45;8.20;;;18.60;99.90;;;;;;5011923;28;20041;-53
2022/06/23 07:08:37;;;;;;;9.07;7.40;;;18.70;99.90;;;;;;5017700;28;20209;-54
2022/06/23 07:11:15;;;;;;;11.82;7.40;;;18.80;99.90;;;;;;5019121;28;20081;-54
2022/06/23 07:13:48;;;;;;;9.32;7.40;;;18.90;99.90;;;;;;5023558;28;20041;-53
2022/06/23 07:16:29;;;;;;;12.32;7.22;;;19.00;99.90;;;;;;5012554;28;20042;-53
2022/06/23 07:19:09;;;;;;;11.65;7.25;;;19.10;99.90;;;;;;5014978;28;20081;-54
2022/06/23 07:22:04;;;;;;;12.88;6.82;;;19.20;99.90;;;;;;5017833;28;20053;-55
2022/06/23 07:24:42;;;;;;;13.38;7.43;;;19.40;99.90;;;;;;5011571;28;20504;-53
2022/06/23 07:27:17;;;;;;;11.15;7.22;;;19.40;99.90;;;;;;5014367;28;20085;-52
2022/06/23 07:30:04;;;;;;;11.65;7.65;;;19.60;99.90;;;;;;5012082;28;20049;-53
2022/06/23 07:33:02;;;;;;;9.88;6.47;;;19.60;99.90;;;;;;5013170;28;20042;-50
2022/06/23 07:35:34;;;;;;;12.02;7.07;;;19.70;99.90;;;;;;5022988;28;20039;-53
2022/06/23 07:38:25;;;;;;;13.82;8.10;;;19.90;99.90;;;;;;5016426;28;20490;-55
2022/06/23 07:41:11;;;;;;;9.23;6.10;;;19.90;99.90;;;;;;5014510;28;20419;-50
2022/06/23 07:43:52;;;;;;;10.48;6.53;;;20.10;99.90;;;;;;5013197;28;20551;-54
2022/06/23 07:46:18;;;;;;;11.15;6.75;;;20.20;99.90;;;;;;5016011;28;20179;-55
2022/06/23 07:48:44;;;;;;;9.55;6.85;;;20.30;99.90;;;;;;5012407;28;20647;-54
2022/06/23 07:51:11;;;;;;;11.07;6.80;;;20.40;99.90;;;;;;5003397;28;20041;-55
2022/06/23 07:53:43;;;;;;;8.55;6.55;;;20.50;99.90;;;;;;5014544;28;20063;-55
2022/06/23 07:56:14;;;;;;;7.70;6.63;;;20.60;99.90;;;;;;5013101;28;20078;-54
2022/06/23 07:58:42;;;;;;;15.15;7.22;;;20.70;99.90;;;;;;5014612;28;20045;-54
2022/06/23 08:01:22;;;;;;;10.25;6.88;;;20.90;99.90;;;;;;5019640;28;20064;-53
2022/06/23 08:04:16;;;;;;;8.18;6.40;;;21.00;99.90;;;;;;5014504;28;20045;-55
2022/06/23 08:06:43;;;;;;;10.55;6.50;;;21.10;99.90;;;;;;5010337;28;20048;-53
2022/06/23 08:09:26;;;;;;;12.85;6.18;;;21.20;99.90;;;;;;5011971;28;20057;-55
2022/06/23 08:18:05;;;;;;;8.15;5.97;;;21.70;99.90;;;;;;5012024;28;20123;-53
2022/06/23 08:20:42;;;;;;;10.93;5.72;;;21.80;99.90;;;;;;5010888;28;20065;-55
2022/06/23 08:23:10;;;;;;;12.07;5.40;;;21.90;99.90;;;;;;5012517;28;20056;-54
2022/06/23 08:25:36;;;;;;;11.45;5.55;;;22.10;99.90;;;;;;5008752;28;20511;-53
2022/06/23 08:28:05;;;;;;;10.85;5.78;;;22.20;99.90;;;;;;5016134;28;20072;-53
2022/06/23 08:30:36;;;;;;;9.57;5.70;;;22.30;99.90;;;;;;5011399;28;20045;-55
2022/06/23 08:33:03;;;;;;;9.65;5.75;;;22.40;99.90;;;;;;5017333;28;20049;-55
2022/06/23 08:35:48;;;;;;;13.85;5.47;;;22.40;99.90;;;;;;5010629;28;20102;-54
2022/06/23 08:38:25;;;;;;;7.88;4.63;;;22.60;99.90;;;;;;5011188;28;20048;-54
2022/06/23 08:40:59;;;;;;;6.28;4.88;;;22.70;99.50;;;;;;5013157;28;20071;-54
2022/06/23 08:43:50;;;;;;;8.75;4.78;;;22.90;98.90;;;;;;5015351;28;20058;-54
2022/06/23 08:46:39;;;;;;;10.63;4.40;;;23.00;99.00;;;;;;5013068;28;20172;-55
2022/06/23 08:49:13;;;;;;;11.05;5.20;;;23.10;99.10;;;;;;5014192;28;20057;-53
2022/06/23 08:52:04;;;;;;;6.15;4.80;;;23.30;98.60;;;;;;5012913;28;20136;-53
2022/06/23 08:54:41;;;;;;;7.88;4.45;;;23.40;98.10;;;;;;5011560;28;20045;-53
2022/06/23 08:57:46;;;;;;;14.57;4.75;;;23.60;97.70;;;;;;5010680;28;20518;-54
2022/06/23 09:00:20;;;;;;;8.15;4.75;;;23.70;97.60;;;;;;5015688;28;20053;-55
2022/06/23 09:03:18;;;;;;;7.65;4.28;;;23.80;97.50;;;;;;5013630;28;20049;-54
2022/06/23 09:06:01;;;;;;;11.57;4.63;;;24.00;97.30;;;;;;5014934;28;21052;-55
2022/06/23 09:08:32;;;;;;;7.65;4.18;;;24.20;97.10;;;;;;5013149;28;20069;-55
2022/06/23 09:11:32;;;;;;;6.03;4.10;;;24.30;97.00;;;;;;5009469;28;20057;-55
2022/06/23 09:14:17;;;;;;;7.80;3.83;;;24.50;96.50;;;;;;5016845;28;20079;-54
2022/06/23 09:16:52;;;;;;;5.10;3.70;;;24.70;96.00;;;;;;5020562;28;20730;-54
2022/06/23 09:19:36;;;;;;;6.57;3.72;;;24.70;94.80;;;;;;5026218;28;20480;-55
2022/06/23 09:22:22;;;;;;;7.97;3.60;;;24.90;94.50;;;;;;5021331;28;20060;-54
2022/06/23 09:25:13;;;;;;;7.57;3.88;;;25.00;93.50;;;;;;5023781;28;20454;-55
2022/06/23 09:28:23;;;;;;;6.35;3.75;;;25.10;93.40;;;;;;5020609;28;20065;-53
2022/06/23 09:31:07;;;;;;;5.72;3.28;;;25.30;93.80;;;;;;5002207;28;20125;-54
2022/06/23 09:33:57;;;;;;;6.65;2.97;;;25.40;92.50;;;;;;5014401;28;20072;-54
2022/06/23 09:36:32;;;;;;;5.65;3.80;;;25.60;92.20;;;;;;5012879;28;20464;-55
2022/06/23 09:39:19;;;;;;;4.55;3.40;;;25.70;90.50;;;;;;5003796;28;20120;-55
2022/06/23 09:42:22;;;;;;;5.32;3.70;;;25.90;90.80;;;;;;5009551;28;20053;-54
2022/06/23 09:45:29;;;;;;;5.70;3.00;;;25.90;89.30;;;;;;5007880;28;20480;-55
2022/06/23 09:48:12;;;;;;;5.05;3.00;;;26.00;84.30;;;;;;5014070;28;20045;-55
2022/06/23 09:51:01;;;;;;;6.50;2.90;;;26.20;85.80;;;;;;5016196;28;20064;-55
2022/06/23 09:53:43;;;;;;;4.13;2.72;;;26.40;83.60;;;;;;5022614;28;20041;-54
2022/06/23 09:56:43;;;;;;;9.27;2.60;;;26.50;79.50;;;;;;5020312;28;20045;-55
2022/06/23 09:59:27;;;;;;;5.82;2.80;;;26.60;80.10;;;;;;5022158;28;20178;-56
2022/06/23 10:02:26;;;;;;;5.80;2.40;;;26.80;78.60;;;;;;5002065;28;20044;-54
2022/06/23 10:05:34;;;;;;;6.40;2.70;;;26.90;77.30;;;;;;4999820;28;20052;-54
2022/06/23 10:08:23;;;;;;;4.95;2.25;;;27.00;78.40;;;;;;5005737;28;20065;-55
2022/06/23 10:11:05;;;;;;;5.15;2.22;;;27.20;74.90;;;;;;5010011;28;20045;-55
2022/06/23 10:13:49;;;;;;;8.07;2.50;;;27.30;74.50;;;;;;5012480;28;21405;-55
2022/06/23 10:16:47;;;;;;;6.50;2.60;;;27.50;75.00;;;;;;5010391;28;20168;-56
2022/06/23 10:19:52;;;;;;;4.82;2.20;;;27.60;71.60;;;;;;5007088;28;20055;-55
2022/06/23 10:22:43;;;;;;;3.88;2.40;;;27.70;67.80;;;;;;5016662;28;20625;-54
2022/06/23 10:25:15;;;;;;;5.38;2.30;;;27.80;69.50;;;;;;5006350;28;20709;-55
2022/06/23 10:28:03;;;;;;;9.70;2.55;;;28.00;68.70;;;;;;5007578;28;20072;-58
2022/06/23 10:30:52;;;;;;;3.53;2.60;;;28.10;67.20;;;;;;5007071;28;20045;-54
2022/06/23 10:33:44;;;;;;;3.70;2.20;;;28.10;66.30;;;;;;5009133;28;20479;-56
2022/06/23 10:36:25;;;;;;;5.22;2.28;;;28.20;66.60;;;;;;5009303;28;20045;-55
2022/06/23 10:39:05;;;;;;;3.50;2.00;;;28.30;66.70;;;;;;5008084;28;20056;-55
2022/06/23 10:42:14;;;;;;;4.95;2.15;;;28.40;67.80;;;;;;5006727;28;20049;-56
2022/06/23 10:45:31;;;;;;;5.18;2.50;;;28.60;67.00;;;;;;5010193;28;20064;-55
2022/06/23 10:48:02;;;;;;;7.28;2.08;;;28.70;65.90;;;;;;5011716;28;20050;-53
2022/06/23 10:50:37;;;;;;;4.68;2.35;;;28.80;64.10;;;;;;4998377;28;20134;-55
2022/06/23 10:53:21;;;;;;;4.72;2.42;;;28.90;63.60;;;;;;5009806;28;20041;-55
2022/06/23 10:55:58;;;;;;;6.50;2.10;;;29.00;63.00;;;;;;5008534;28;20464;-54
2022/06/23 10:58:45;;;;;;;3.40;2.15;;;29.10;63.40;;;;;;5005637;28;20064;-53
2022/06/23 11:01:34;;;;;;;4.90;2.10;;;29.30;62.80;;;;;;5000590;28;20853;-55
2022/06/23 11:04:22;;;;;;;3.45;2.10;;;29.40;62.10;;;;;;5007155;28;20127;-55
2022/06/23 11:07:16;;;;;;;3.35;2.20;;;29.50;62.30;;;;;;5012944;28;20128;-55
2022/06/23 11:09:57;;;;;;;5.50;2.10;;;29.60;61.50;;;;;;5005032;28;20099;-54
2022/06/23 11:13:09;;;;;;;9.25;2.80;;;29.70;59.80;;;;;;5005709;28;20045;-53
2022/06/23 11:16:04;;;;;;;16.30;2.57;;;29.70;58.30;;;;;;5004380;28;20138;-56
2022/06/23 11:19:13;;;;;;;6.65;2.58;;;29.70;59.10;;;;;;5003402;28;20126;-55
2022/06/23 11:21:45;;;;;;;5.57;2.50;;;29.80;58.20;;;;;;5013466;28;20068;-56
2022/06/23 11:24:45;;;;;;;59.40;4.75;;;29.90;59.40;;;;;;5010807;28;20056;-54
2022/06/23 11:27:37;;;;;;;7.22;2.38;;;30.10;60.00;;;;;;5009075;28;20500;-54
2022/06/23 11:30:18;;;;;;;4.22;2.40;;;30.30;59.10;;;;;;5010702;28;20411;-55
2022/06/23 11:32:47;;;;;;;6.32;2.45;;;30.30;58.00;;;;;;5008661;28;20104;-54
2022/06/23 11:35:31;;;;;;;5.60;2.30;;;30.40;57.80;;;;;;5005206;28;20055;-55
2022/06/23 11:38:27;;;;;;;6.15;2.20;;;30.60;58.20;;;;;;5009112;28;20049;-54
2022/06/23 11:41:11;;;;;;;6.78;2.55;;;30.70;58.00;;;;;;5009686;28;20041;-57
2022/06/23 11:43:57;;;;;;;9.48;2.20;;;30.80;56.70;;;;;;5006458;28;20047;-55
2022/06/23 11:46:25;;;;;;;67.78;4.57;;;30.90;56.30;;;;;;5000450;28;20085;-55
2022/06/23 11:49:29;;;;;;;4.38;2.15;;;31.00;56.10;;;;;;5007059;28;20041;-54
2022/06/23 11:52:21;;;;;;;7.95;2.78;;;31.00;56.30;;;;;;5014820;28;20203;-54
2022/06/23 11:55:06;;;;;;;10.57;2.50;;;31.20;56.10;;;;;;5000649;28;22293;-54
2022/06/23 11:57:53;;;;;;;5.45;2.38;;;31.20;56.20;;;;;;5016531;28;20086;-55
2022/06/23 12:00:38;;;;;;;6.25;2.40;;;31.40;56.70;;;;;;5013442;28;20295;-55
2022/06/23 12:03:07;;;;;;;4.93;2.08;;;31.60;55.00;;;;;;5015125;28;20057;-56
2022/06/23 12:05:54;;;;;;;6.65;2.45;;;31.70;54.00;;;;;;5009901;28;20415;-54
2022/06/23 12:08:24;;;;;;;7.28;2.20;;;31.70;54.60;;;;;;5015834;28;20077;-52
2022/06/23 12:10:50;;;;;;;5.43;2.08;;;31.80;54.50;;;;;;5013630;28;20095;-55
2022/06/23 12:13:16;;;;;;;4.32;2.22;;;32.00;54.70;;;;;;5023387;28;20060;-56
2022/06/23 12:15:47;;;;;;;9.38;1.98;;;32.10;54.10;;;;;;5009517;28;20045;-56
2022/06/23 12:18:43;;;;;;;6.80;2.17;;;32.30;54.30;;;;;;5020855;28;20096;-56
2022/06/23 12:21:18;;;;;;;4.80;1.85;;;32.50;54.70;;;;;;5006479;28;20504;-56
2022/06/23 12:23:46;;;;;;;5.80;2.00;;;32.60;53.80;;;;;;5007836;28;20057;-56
2022/06/23 12:26:19;;;;;;;5.40;2.05;;;32.70;52.20;;;;;;5007637;28;20053;-56
2022/06/23 12:29:09;;;;;;;3.33;1.88;;;32.80;52.50;;;;;;5004415;28;20480;-56
2022/06/23 12:31:44;;;;;;;6.28;1.92;;;33.00;51.80;;;;;;5001545;28;20053;-54
2022/06/23 12:34:28;;;;;;;5.40;2.08;;;33.00;51.60;;;;;;5008342;28;20397;-56
2022/06/23 12:37:25;;;;;;;8.00;2.03;;;33.10;51.60;;;;;;5007437;28;20090;-55
2022/06/23 12:40:09;;;;;;;4.93;1.70;;;33.10;50.40;;;;;;5003988;28;20443;-56
2022/06/23 12:42:45;;;;;;;5.53;1.70;;;33.00;48.70;;;;;;5006242;28;20411;-58
2022/06/23 12:45:31;;;;;;;2.70;1.80;;;33.00;50.50;;;;;;5009024;28;20104;-56
2022/06/23 12:48:11;;;;;;;2.33;1.83;;;33.20;51.00;;;;;;5005609;28;20053;-56
2022/06/23 12:50:59;;;;;;;4.93;2.03;;;33.20;50.50;;;;;;5004055;28;20132;-55
2022/06/23 12:54:01;;;;;;;3.97;1.58;;;33.20;49.20;;;;;;5006618;28;20038;-56
2022/06/23 12:56:58;;;;;;;4.32;1.75;;;33.30;50.20;;;;;;5007506;28;20544;-56
2022/06/23 12:59:24;;;;;;;3.92;1.98;;;33.40;49.60;;;;;;5006474;28;20567;-55
2022/06/23 13:02:16;;;;;;;6.65;1.85;;;33.40;48.80;;;;;;5005537;28;20049;-56
2022/06/23 13:05:00;;;;;;;5.60;1.83;;;33.60;50.80;;;;;;5010226;28;20128;-55
2022/06/23 13:08:04;;;;;;;7.07;1.67;;;33.70;49.20;;;;;;5008086;28;20049;-54
2022/06/23 13:10:45;;;;;;;6.28;1.80;;;33.90;49.10;;;;;;5010527;28;20158;-58
2022/06/23 13:13:22;;;;;;;6.30;1.80;;;34.00;51.40;;;;;;5007341;28;20613;-57
2022/06/23 13:15:51;;;;;;;6.72;2.15;;;34.00;49.20;;;;;;5001532;28;20125;-56
2022/06/23 13:18:36;;;;;;;8.27;2.10;;;34.10;49.70;;;;;;5009100;28;20052;-57
2022/06/23 13:21:21;;;;;;;4.57;1.73;;;34.20;49.90;;;;;;5001324;28;20518;-57
2022/06/23 13:23:58;;;;;;;3.88;1.80;;;34.30;49.60;;;;;;5004310;28;20079;-58
2022/06/23 13:26:33;;;;;;;6.03;1.70;;;34.40;49.70;;;;;;5006411;28;20143;-56
2022/06/23 13:29:25;;;;;;;2.70;1.70;;;34.50;47.80;;;;;;5006044;28;20140;-58
2022/06/23 13:32:11;;;;;;;3.67;1.67;;;34.50;47.00;;;;;;5003773;28;20535;-57
2022/06/23 13:34:50;;;;;;;3.13;1.55;;;34.50;46.30;;;;;;5008915;28;21240;-57
2022/06/23 13:37:28;;;;;;;4.82;1.80;;;34.40;46.70;;;;;;5006319;28;20103;-58
2022/06/23 13:40:14;;;;;;;4.43;2.17;;;34.40;46.90;;;;;;5003384;28;20080;-57
2022/06/23 13:42:44;;;;;;;1.90;1.50;;;34.50;47.10;;;;;;5006318;28;20049;-58
2022/06/23 13:46:01;;;;;;;2.63;1.60;;;34.60;46.60;;;;;;5004967;28;21673;-58
2022/06/23 13:48:34;;;;;;;3.50;1.50;;;34.60;47.20;;;;;;5002306;28;20156;-58
2022/06/23 13:51:12;;;;;;;5.43;1.60;;;34.60;46.90;;;;;;5003950;28;20499;-57
2022/06/23 13:53:46;;;;;;;6.43;1.80;;;34.60;46.40;;;;;;5011497;28;20526;-58
2022/06/23 13:56:47;;;;;;;5.97;1.73;;;34.60;46.30;;;;;;5011843;28;20048;-59
2022/06/23 13:59:25;;;;;;;2.92;1.63;;;34.60;46.90;;;;;;5005864;28;20052;-58
2022/06/23 14:02:30;;;;;;;7.35;1.92;;;34.80;45.80;;;;;;5002908;28;20482;-58
2022/06/23 14:05:09;;;;;;;5.10;2.58;;;34.80;45.20;;;;;;5020705;28;20624;-59
2022/06/23 14:08:05;;;;;;;5.00;1.60;;;35.00;46.60;;;;;;5005374;28;20104;-59